Time;durP1;ratioP1;P1;durP2;ratioP2;P2;SDS_P1;SDS_P2;PMS_P1;PMS_P2;Temp;Humidity;BMP_temperature;BMP_pressure;BME280_temperature;BME280_humidity;BME280_pressure;Samples;Min_cycle;Max_cycle;Signal;HPM_P1;HPM_P2
2023/04/20 00:02:25;;;;;;;;;;;;;;;-140.72;0.00;52739.88;5020918;28;19928;-70
2023/04/20 00:04:50;;;;;;;;;;;;;;;-140.72;0.00;52717.56;5028705;28;19928;-70
2023/04/20 00:07:17;;;;;;;;;;;;;;;-140.72;0.00;52745.97;5026362;28;19925;-70
2023/04/20 00:09:42;;;;;;;;;;;;;;;-140.72;0.00;52735.81;5026648;28;19921;-70
2023/04/20 00:12:07;;;;;;;;;;;;;;;-140.72;0.00;52715.53;5026897;28;19917;-70
2023/04/20 00:14:32;;;;;;;;;;;;;;;-140.72;0.00;52776.41;5030496;28;19956;-70
2023/04/20 00:16:58;;;;;;;;;;;;;;;-140.72;0.00;52754.09;5024012;28;20020;-70
2023/04/20 00:19:23;;;;;;;;;;;;;;;-140.72;0.00;52754.09;5023917;28;19929;-70
2023/04/20 00:21:48;;;;;;;;;;;;;;;-140.72;0.00;52768.28;5021581;28;20003;-69
2023/04/20 00:24:14;;;;;;;;;;;;;;;-140.72;0.00;52739.88;5027644;28;19917;-69
2023/04/20 00:26:39;;;;;;;;;;;;;;;-140.72;0.00;52735.81;5027673;28;19917;-70
2023/04/20 00:35:34;;;;;;;;;;;;;;;-140.72;0.00;52743.94;5021578;28;20317;-70
2023/04/20 00:41:02;;;;;;;;;;;;;;;-140.72;0.00;52768.28;5025361;28;19924;-69
2023/04/20 00:43:27;;;;;;;;;;;;;;;-140.72;0.00;52756.13;5011705;28;19933;-69
2023/04/20 00:45:53;;;;;;;;;;;;;;;-140.72;0.00;52729.75;5024767;28;20339;-71
2023/04/20 00:48:18;;;;;;;;;;;;;;;-140.72;0.00;52752.06;5021136;28;19929;-70
2023/04/20 00:50:44;;;;;;;;;;;;;;;-140.72;0.00;52786.56;5017124;28;19921;-70
2023/04/20 00:53:10;;;;;;;;;;;;;;;-140.72;0.00;52721.63;5029702;28;19921;-69
2023/04/20 00:55:36;;;;;;;;;;;;;;;-140.72;0.00;52748.00;5027871;28;19929;-70
2023/04/20 00:58:01;;;;;;;;;;;;;;;-140.72;0.00;52739.88;5026232;28;19932;-70
2023/04/20 01:00:26;;;;;;;;;;;;;;;-140.72;0.00;52725.69;5026217;28;19921;-70
2023/04/20 01:02:52;;;;;;;;;;;;;;;-140.72;0.00;52748.00;5029951;28;19921;-69
2023/04/20 01:05:17;;;;;;;;;;;;;;;-140.72;0.00;52754.09;5022125;28;19921;-70
2023/04/20 01:07:42;;;;;;;;;;;;;;;-140.72;0.00;52739.88;5025855;28;19928;-70
2023/04/20 01:10:08;;;;;;;;;;;;;;;-140.72;0.00;52741.91;5028858;28;19917;-70
2023/04/20 01:12:33;;;;;;;;;;;;;;;-140.72;0.00;52739.88;5029930;28;20001;-70
2023/04/20 01:15:11;;;;;;;;;;;;;;;-140.72;0.00;52731.75;5022315;28;20008;-70
2023/04/20 01:17:39;;;;;;;;;;;;;;;-140.72;0.00;52780.47;5017803;28;19922;-70
2023/04/20 01:20:16;;;;;;;;;;;;;;;-140.72;0.00;52745.97;5024075;28;20283;-71
2023/04/20 01:22:42;;;;;;;;;;;;;;;-140.72;0.00;52764.25;5018594;28;19965;-70
2023/04/20 01:25:24;;;;;;;;;;;;;;;-140.72;0.00;52784.53;5019139;28;20012;-70
2023/04/20 01:27:50;;;;;;;;;;;;;;;-140.72;0.00;52780.47;5022423;28;19995;-70
2023/04/20 01:30:31;;;;;;;;;;;;;;;-140.72;0.00;52766.25;5043261;28;19921;-69
2023/04/20 01:32:56;;;;;;;;;;;;;;;-140.72;0.00;52774.38;5021599;28;19921;-70
2023/04/20 01:35:21;;;;;;;;;;;;;;;-140.72;0.00;52782.50;5032338;28;19921;-70
2023/04/20 01:37:46;;;;;;;;;;;;;;;-140.72;0.00;52802.78;5033795;28;20015;-70
2023/04/20 01:40:12;;;;;;;;;;;;;;;-140.72;0.00;52752.06;5034308;28;20012;-70
2023/04/20 01:42:37;;;;;;;;;;;;;;;-140.72;0.00;52792.66;5021455;28;19918;-70
2023/04/20 01:45:04;;;;;;;;;;;;;;;-140.72;0.00;52760.19;5027321;28;19921;-70
2023/04/20 01:47:29;;;;;;;;;;;;;;;-140.72;0.00;52790.63;5031920;28;19923;-70
2023/04/20 01:49:55;;;;;;;;;;;;;;;-140.72;0.00;52778.44;5032730;28;19996;-70
2023/04/20 01:52:20;;;;;;;;;;;;;;;-140.72;0.00;52770.31;5030085;28;20003;-70
2023/04/20 01:54:45;;;;;;;;;;;;;;;-140.72;0.00;52804.81;5032496;28;19966;-70
2023/04/20 01:57:10;;;;;;;;;;;;;;;-140.72;0.00;52780.47;5019771;28;19929;-70
2023/04/20 01:59:36;;;;;;;;;;;;;;;-140.72;0.00;52808.88;5030320;28;19970;-71
2023/04/20 02:02:01;;;;;;;;;;;;;;;-140.72;0.00;52837.28;5027480;28;19922;-70
2023/04/20 02:04:26;;;;;;;;;;;;;;;-140.72;0.00;52780.47;5033055;28;19917;-71
2023/04/20 02:06:51;;;;;;;;;;;;;;;-140.72;0.00;52752.06;5032693;28;20252;-71
2023/04/20 02:09:16;;;;;;;;;;;;;;;-140.72;0.00;52812.94;5022872;28;19924;-75
2023/04/20 02:11:42;;;;;;;;;;;;;;;-140.72;0.00;52764.25;5017160;28;20352;-70
2023/04/20 02:14:07;;;;;;;;;;;;;;;-140.72;0.00;52798.72;5039281;28;20383;-70
2023/04/20 02:16:34;;;;;;;;;;;;;;;-140.72;0.00;52796.72;5031235;28;19973;-70
2023/04/20 02:18:59;;;;;;;;;;;;;;;-140.72;0.00;52760.19;5035255;28;19924;-70
2023/04/20 02:21:25;;;;;;;;;;;;;;;-140.72;0.00;52782.50;5028172;28;19925;-70
2023/04/20 02:23:50;;;;;;;;;;;;;;;-140.72;0.00;52798.72;5019376;28;19917;-70
2023/04/20 02:26:15;;;;;;;;;;;;;;;-140.72;0.00;52837.28;5031331;28;19928;-70
2023/04/20 02:28:41;;;;;;;;;;;;;;;-140.72;0.00;52782.50;5029597;28;19921;-70
2023/04/20 02:31:06;;;;;;;;;;;;;;;-140.72;0.00;52796.72;5033463;28;19921;-70
2023/04/20 02:34:08;;;;;;;;;;;;;;;-140.72;0.00;52776.41;5029939;28;19964;-70
2023/04/20 02:36:33;;;;;;;;;;;;;;;-140.72;0.00;52810.91;5030844;28;19983;-70
2023/04/20 02:39:06;;;;;;;;;;;;;;;-140.72;0.00;52798.72;5022684;28;20344;-69
2023/04/20 02:41:32;;;;;;;;;;;;;;;-140.72;0.00;52806.84;5028662;28;20082;-69
2023/04/20 02:43:57;;;;;;;;;;;;;;;-140.72;0.00;52802.78;5013997;28;20399;-70
2023/04/20 02:46:28;;;;;;;;;;;;;;;-140.72;0.00;52835.25;5030788;28;19917;-71
2023/04/20 02:48:54;;;;;;;;;;;;;;;-140.72;0.00;52804.81;5032373;28;19924;-71
2023/04/20 02:51:21;;;;;;;;;;;;;;;-140.72;0.00;52843.38;5028692;27;19917;-70
2023/04/20 02:53:47;;;;;;;;;;;;;;;-140.72;3.81;52817.00;5026235;28;19961;-70
2023/04/20 02:56:12;;;;;;;;;;;;;;;-140.72;12.17;52812.94;5013529;28;19994;-70
2023/04/20 02:58:37;;;;;;;;;;;;;;;-140.72;24.29;52817.00;5024618;28;19917;-70
2023/04/20 03:01:06;;;;;;;;;;;;;;;-140.72;36.40;52776.41;5015636;28;19925;-70
2023/04/20 03:03:31;;;;;;;;;;;;;;;-140.72;47.23;52823.09;5025340;28;20028;-71
2023/04/20 03:05:57;;;;;;;;;;;;;;;-140.72;62.47;52756.13;5024857;28;19929;-70
2023/04/20 03:08:22;;;;;;;;;;;;;;;-140.72;73.09;52823.09;5035474;28;19924;-69
2023/04/20 03:10:47;;;;;;;;;;;;;;;-140.72;80.57;52829.19;5031608;28;20283;-70
2023/04/20 03:13:12;;;;;;;;;;;;;;;-140.72;85.97;52812.94;5031380;28;19942;-71
2023/04/20 03:15:38;;;;;;;;;;;;;;;-140.72;88.16;52841.34;5025105;28;19956;-70
2023/04/20 03:18:03;;;;;;;;;;;;;;;-140.72;94.22;52794.69;5030675;28;20012;-70
2023/04/20 03:20:28;;;;;;;;;;;;;;;-140.72;95.58;52827.16;5025049;28;20396;-70
2023/04/20 03:22:54;;;;;;;;;;;;;;;-140.72;97.08;52798.72;5022988;28;19944;-71
2023/04/20 03:25:19;;;;;;;;;;;;;;;-140.72;100.00;52780.47;5031848;28;19936;-70
2023/04/20 03:27:45;;;;;;;;;;;;;;;-140.72;100.00;52814.97;5031892;28;20057;-70
2023/04/20 03:30:11;;;;;;;;;;;;;;;-140.72;100.00;52778.44;5030981;28;20455;-71
2023/04/20 03:32:37;;;;;;;;;;;;;;;-140.72;100.00;52812.94;5022048;28;19921;-70
2023/04/20 03:35:02;;;;;;;;;;;;;;;-140.72;100.00;52821.06;5022890;28;19925;-70
2023/04/20 03:37:27;;;;;;;;;;;;;;;-140.72;100.00;52792.66;5032928;28;19921;-70
2023/04/20 03:39:52;;;;;;;;;;;;;;;-140.72;100.00;52825.13;5024322;28;20368;-70
2023/04/20 03:42:18;;;;;;;;;;;;;;;-140.72;100.00;52796.72;5024840;28;19927;-71
2023/04/20 03:44:57;;;;;;;;;;;;;;;-140.72;100.00;52780.47;5030556;28;19988;-70
2023/04/20 03:47:22;;;;;;;;;;;;;;;-140.72;100.00;52764.25;5030831;28;19929;-71
2023/04/20 03:50:13;;;;;;;;;;;;;;;-140.72;100.00;52778.44;5025975;28;20017;-70
2023/04/20 03:52:39;;;;;;;;;;;;;;;-140.72;100.00;52808.88;5023868;28;19922;-70
2023/04/20 03:55:05;;;;;;;;;;;;;;;-140.72;100.00;52719.59;5026104;28;19921;-70
2023/04/20 03:57:31;;;;;;;;;;;;;;;-140.72;100.00;52786.56;5019210;28;19922;-70
2023/04/20 03:59:59;;;;;;;;;;;;;;;-140.72;100.00;52778.44;5023162;28;19917;-70
2023/04/20 04:02:24;;;;;;;;;;;;;;;-140.72;100.00;52798.72;5028952;28;19921;-71
2023/04/20 04:04:49;;;;;;;;;;;;;;;-140.72;100.00;52776.41;5019726;28;20016;-70
2023/04/20 04:07:14;;;;;;;;;;;;;;;-140.72;98.26;52764.25;5030473;28;19921;-72
2023/04/20 04:09:40;;;;;;;;;;;;;;;-140.72;97.09;52770.31;5022704;28;20307;-71
2023/04/20 04:12:05;;;;;;;;;;;;;;;-140.72;93.54;52741.91;5032721;28;19921;-71
2023/04/20 04:14:31;;;;;;;;;;;;;;;-140.72;93.50;52770.31;5026946;28;19925;-73
2023/04/20 04:17:06;;;;;;;;;;;;;;;-140.72;85.52;52776.41;5024408;28;19923;-75
2023/04/20 04:19:32;;;;;;;;;;;;;;;-140.72;85.23;52766.25;5022649;28;19925;-75
2023/04/20 04:21:57;;;;;;;;;;;;;;;-140.72;82.50;52748.00;5027551;28;19921;-75
2023/04/20 04:24:22;;;;;;;;;;;;;;;-140.72;78.87;52784.53;5035796;28;19961;-75
2023/04/20 04:26:48;;;;;;;;;;;;;;;-140.72;72.99;52758.16;5027548;28;19974;-75
2023/04/20 04:29:14;;;;;;;;;;;;;;;-140.72;72.77;52764.25;5020754;28;19928;-75
2023/04/20 04:31:40;;;;;;;;;;;;;;;-140.72;71.66;52743.94;5026285;28;19921;-75
2023/04/20 04:34:05;;;;;;;;;;;;;;;-140.72;73.68;52762.22;5027017;28;19928;-74
2023/04/20 04:36:30;;;;;;;;;;;;;;;-140.72;75.43;52735.81;5028340;28;20008;-74
2023/04/20 04:38:56;;;;;;;;;;;;;;;-140.72;78.03;52760.19;5020054;28;19922;-72
2023/04/20 04:41:22;;;;;;;;;;;;;;;-140.72;84.57;52743.94;5028257;28;19925;-73
2023/04/20 04:43:47;;;;;;;;;;;;;;;-140.72;80.83;52752.06;5037956;28;20011;-73
2023/04/20 04:46:13;;;;;;;;;;;;;;;-140.72;78.07;52727.72;5027752;28;20460;-73
2023/04/20 04:48:41;;;;;;;;;;;;;;;-140.72;77.71;52750.03;5029661;28;20007;-74
2023/04/20 04:51:06;;;;;;;;;;;;;;;-140.72;78.63;52760.19;5028439;28;20000;-74
2023/04/20 04:53:32;;;;;;;;;;;;;;;-140.72;74.89;52743.94;5051194;28;20406;-73
2023/04/20 04:55:57;;;;;;;;;;;;;;;-140.72;77.89;52760.19;5030815;28;19956;-73
2023/04/20 04:58:22;;;;;;;;;;;;;;;-140.72;79.31;52748.00;5035310;28;19921;-74
2023/04/20 05:00:47;;;;;;;;;;;;;;;-140.72;81.00;52796.72;5027419;28;19917;-73
2023/04/20 05:03:13;;;;;;;;;;;;;;;-140.72;85.52;52717.56;5027353;28;19955;-74
2023/04/20 05:05:38;;;;;;;;;;;;;;;-140.72;85.71;52766.25;5031465;28;19928;-73
2023/04/20 05:08:03;;;;;;;;;;;;;;;-140.72;80.12;52725.69;5063191;28;19921;-73
2023/04/20 05:10:28;;;;;;;;;;;;;;;-140.72;83.17;52760.19;5024496;28;20410;-73
2023/04/20 05:12:54;;;;;;;;;;;;;;;-140.72;78.58;52711.47;5041055;28;20352;-73
2023/04/20 05:15:21;;;;;;;;;;;;;;;-140.72;74.39;52703.34;5047974;28;19925;-73
2023/04/20 05:17:48;;;;;;;;;;;;;;;-140.72;75.42;52727.72;5026754;28;19921;-71
2023/04/20 05:20:14;;;;;;;;;;;;;;;-140.72;77.11;52758.16;5021301;28;19924;-72
2023/04/20 05:22:51;;;;;;;;;;;;;;;-140.72;81.42;52760.19;5033219;28;19921;-70
2023/04/20 05:25:17;;;;;;;;;;;;;;;-140.72;81.96;52750.03;5027263;28;19948;-69
2023/04/20 05:28:10;;;;;;;;;;;;;;;-140.72;80.81;52731.75;5023715;28;20351;-69
2023/04/20 05:30:35;;;;;;;;;;;;;;;-140.72;75.61;52739.88;5030269;28;19917;-69
2023/04/20 05:33:00;;;;;;;;;;;;;;;-140.72;75.88;52699.31;5026201;28;19917;-70
2023/04/20 05:35:26;;;;;;;;;;;;;;;-140.72;75.66;52703.34;5028782;28;20333;-69
2023/04/20 05:37:51;;;;;;;;;;;;;;;-140.72;80.25;52743.94;5026929;28;19937;-71
2023/04/20 05:40:16;;;;;;;;;;;;;;;-140.72;80.62;52691.19;5029990;27;19928;-70
2023/04/20 05:42:41;;;;;;;;;;;;;;;-140.72;84.13;52743.94;5020378;28;19921;-70
2023/04/20 05:45:07;;;;;;;;;;;;;;;-140.72;84.99;52756.13;5028902;28;19940;-69
2023/04/20 05:47:32;;;;;;;;;;;;;;;-140.72;84.63;52717.56;5029430;28;19921;-70
2023/04/20 05:49:58;;;;;;;;;;;;;;;-140.72;84.59;52741.91;5030220;28;19921;-69
2023/04/20 05:52:23;;;;;;;;;;;;;;;-140.72;76.78;52719.59;5028051;28;20298;-69
2023/04/20 05:54:48;;;;;;;;;;;;;;;-140.72;66.32;52727.72;5030559;28;20405;-69
2023/04/20 05:57:14;;;;;;;;;;;;;;;-140.72;59.17;52748.00;5024905;28;19928;-69
2023/04/20 05:59:39;;;;;;;;;;;;;;;-140.72;57.36;52713.50;5028139;28;19944;-69
2023/04/20 06:02:04;;;;;;;;;;;;;;;-140.72;43.42;52713.50;5018407;28;19929;-75
2023/04/20 06:04:30;;;;;;;;;;;;;;;-140.72;19.54;52719.59;5018405;28;20288;-71
2023/04/20 06:06:55;;;;;;;;;;;;;;;-140.72;0.00;52715.53;5021852;28;19964;-69
2023/04/20 06:09:21;;;;;;;;;;;;;;;-140.72;0.00;52683.06;5024157;28;20406;-70
2023/04/20 06:11:46;;;;;;;;;;;;;;;-140.72;0.00;52681.03;5025665;28;19922;-70
2023/04/20 06:14:13;;;;;;;;;;;;;;;-140.72;0.00;52693.22;5030923;27;19917;-70
2023/04/20 06:16:38;;;;;;;;;;;;;;;-140.72;0.00;52697.28;5020222;28;19935;-69
2023/04/20 06:19:03;;;;;;;;;;;;;;;-140.72;0.00;52715.53;5031073;28;19921;-70
2023/04/20 06:21:28;;;;;;;;;;;;;;;-140.72;0.00;52711.47;5029682;28;20045;-70
2023/04/20 06:23:54;;;;;;;;;;;;;;;-140.72;0.00;52664.81;5030540;27;20420;-70
2023/04/20 06:26:19;;;;;;;;;;;;;;;-140.72;0.00;52691.19;5029421;28;19970;-69
2023/04/20 06:28:46;;;;;;;;;;;;;;;-140.72;0.00;52701.31;5029520;28;20055;-69
2023/04/20 06:31:11;;;;;;;;;;;;;;;-140.72;0.00;52679.00;5027207;28;19922;-69
2023/04/20 06:33:36;;;;;;;;;;;;;;;-140.72;0.00;52717.56;5023945;28;19921;-70
2023/04/20 06:36:05;;;;;;;;;;;;;;;-140.72;0.00;52727.72;5028305;28;19971;-70
2023/04/20 06:38:30;;;;;;;;;;;;;;;-140.72;0.00;52687.13;5030236;28;19939;-71
2023/04/20 06:40:57;;;;;;;;;;;;;;;-140.72;0.00;52733.78;5029360;28;19926;-70
2023/04/20 06:43:23;;;;;;;;;;;;;;;-140.72;0.00;52711.47;5033250;27;19921;-70
2023/04/20 06:45:48;;;;;;;;;;;;;;;-140.72;0.00;52711.47;5039764;27;20423;-71
2023/04/20 06:48:13;;;;;;;;;;;;;;;-140.72;0.00;52674.94;5029414;28;19935;-70
2023/04/20 06:50:38;;;;;;;;;;;;;;;-140.72;0.00;52664.81;5028810;28;19921;-70
2023/04/20 06:53:04;;;;;;;;;;;;;;;-140.72;0.00;52660.75;5029136;28;19928;-70
2023/04/20 06:55:29;;;;;;;;;;;;;;;-140.72;0.00;52676.97;5024524;28;19925;-70
2023/04/20 06:57:55;;;;;;;;;;;;;;;-140.72;0.00;52707.41;5025247;28;19926;-70
2023/04/20 07:00:20;;;;;;;;;;;;;;;-140.72;0.00;52723.66;5026687;28;20310;-72
2023/04/20 07:02:49;;;;;;;;;;;;;;;-140.72;0.00;52711.47;5020329;28;20467;-72
2023/04/20 07:05:15;;;;;;;;;;;;;;;-140.72;0.00;52727.72;5029295;28;20379;-71
2023/04/20 07:07:41;;;;;;;;;;;;;;;-140.72;0.00;52685.09;5039576;27;19924;-70
2023/04/20 07:10:07;;;;;;;;;;;;;;;-140.72;0.00;52725.69;5021001;28;19944;-71
2023/04/20 07:12:34;;;;;;;;;;;;;;;-140.72;0.00;52715.53;5017649;27;20069;-71
2023/04/20 07:15:00;;;;;;;;;;;;;;;-140.72;0.00;52723.66;5013520;28;19925;-72
2023/04/20 07:17:28;;;;;;;;;;;;;;;-140.72;0.00;52735.81;5018543;28;19994;-71
2023/04/20 07:19:55;;;;;;;;;;;;;;;-140.72;0.00;52701.31;5012993;28;19925;-70
2023/04/20 07:22:20;;;;;;;;;;;;;;;-140.72;0.00;52705.38;5016522;28;19929;-71
2023/04/20 07:24:45;;;;;;;;;;;;;;;-140.72;0.00;52719.59;5023089;28;19993;-71
2023/04/20 07:27:11;;;;;;;;;;;;;;;-140.72;0.00;52685.09;5029756;28;19928;-70
2023/04/20 07:29:36;;;;;;;;;;;;;;;-140.72;0.00;52707.41;5026654;28;19926;-75
2023/04/20 07:32:01;;;;;;;;;;;;;;;-140.72;0.00;52739.88;5028928;28;20496;-71
2023/04/20 07:34:26;;;;;;;;;;;;;;;-140.72;0.00;52729.75;5030549;28;20329;-71
2023/04/20 07:36:52;;;;;;;;;;;;;;;-140.72;0.00;52743.94;5030824;28;20019;-71
2023/04/20 07:39:17;;;;;;;;;;;;;;;-140.72;0.00;52695.25;5027126;28;19943;-71
2023/04/20 07:41:42;;;;;;;;;;;;;;;-140.72;0.00;52699.31;5024606;28;19917;-70
2023/04/20 07:44:08;;;;;;;;;;;;;;;-140.72;7.20;52745.97;5025410;28;19928;-72
2023/04/20 07:46:33;;;;;;;;;;;;;;;-140.72;58.08;52723.66;5020406;28;19921;-71
2023/04/20 07:48:58;;;;;;;;;;;;;;;-140.72;73.37;52741.91;5034588;28;19956;-71
2023/04/20 07:51:23;;;;;;;;;;;;;;;-140.72;86.59;52681.03;5034822;28;19920;-70
2023/04/20 07:53:49;;;;;;;;;;;;;;;-140.72;100.00;52752.06;5028842;28;19921;-70
2023/04/20 07:56:14;;;;;;;;;;;;;;;-140.72;100.00;52764.25;5026294;28;19921;-71
2023/04/20 07:58:39;;;;;;;;;;;;;;;-140.72;100.00;52743.94;5029273;28;19921;-73
2023/04/20 08:01:05;;;;;;;;;;;;;;;-140.72;100.00;52717.56;5018908;28;19983;-73
2023/04/20 08:03:32;;;;;;;;;;;;;;;-140.72;100.00;52727.72;5026280;28;20364;-72
2023/04/20 08:05:57;;;;;;;;;;;;;;;-140.72;100.00;52699.31;5015333;28;19929;-74
2023/04/20 08:08:22;;;;;;;;;;;;;;;-140.72;100.00;52743.94;5027882;28;19921;-72
2023/04/20 08:10:47;;;;;;;;;;;;;;;-140.72;100.00;52748.00;5025653;28;19924;-72
2023/04/20 08:13:13;;;;;;;;;;;;;;;-140.72;100.00;52743.94;5013751;28;19924;-72
2023/04/20 08:15:38;;;;;;;;;;;;;;;-140.72;100.00;52752.06;5027516;28;19918;-72
2023/04/20 08:18:03;;;;;;;;;;;;;;;-140.72;100.00;52727.72;5024430;28;19921;-73
2023/04/20 08:20:28;;;;;;;;;;;;;;;-140.72;100.00;52752.06;5027728;28;19922;-73
2023/04/20 08:22:53;;;;;;;;;;;;;;;-140.72;100.00;52733.78;5022014;28;19930;-73
2023/04/20 08:25:19;;;;;;;;;;;;;;;-140.72;100.00;52760.19;5028206;28;19977;-72
2023/04/20 08:27:44;;;;;;;;;;;;;;;-140.72;100.00;52719.59;5029892;28;19966;-73
2023/04/20 08:30:10;;;;;;;;;;;;;;;-140.72;100.00;52764.25;5030203;28;20395;-73
2023/04/20 08:32:35;;;;;;;;;;;;;;;-140.72;100.00;52705.38;5030337;28;20007;-71
2023/04/20 08:35:00;;;;;;;;;;;;;;;-140.72;100.00;52741.91;5028807;28;19928;-73
2023/04/20 08:37:26;;;;;;;;;;;;;;;-140.72;100.00;52729.75;5029428;28;19928;-72
2023/04/20 08:39:51;;;;;;;;;;;;;;;-140.72;100.00;52748.00;5022525;28;19921;-72
2023/04/20 08:42:16;;;;;;;;;;;;;;;-140.72;100.00;52743.94;5026543;28;19921;-73
2023/04/20 08:44:42;;;;;;;;;;;;;;;-140.72;100.00;52729.75;5021686;28;19933;-72
2023/04/20 08:47:08;;;;;;;;;;;;;;;-140.72;100.00;52711.47;5023638;28;19921;-71
2023/04/20 08:49:34;;;;;;;;;;;;;;;-140.72;100.00;52727.72;5025870;28;19925;-72
2023/04/20 08:51:59;;;;;;;;;;;;;;;-140.72;100.00;52711.47;5023021;28;19929;-72
2023/04/20 08:54:25;;;;;;;;;;;;;;;-140.72;100.00;52711.47;5023154;28;19923;-72
2023/04/20 08:56:50;;;;;;;;;;;;;;;-140.72;100.00;52709.44;5031880;28;19947;-72
2023/04/20 08:59:15;;;;;;;;;;;;;;;-140.72;100.00;52725.69;5031908;28;19966;-72
2023/04/20 09:01:41;;;;;;;;;;;;;;;-140.72;100.00;52731.75;5033375;28;20427;-73
2023/04/20 09:04:23;;;;;;;;;;;;;;;-140.72;100.00;52733.78;5032992;28;20015;-72
2023/04/20 09:06:52;;;;;;;;;;;;;;;-140.72;100.00;52703.34;5022230;28;19925;-72
2023/04/20 09:09:18;;;;;;;;;;;;;;;-140.72;100.00;52668.84;5019009;28;19970;-73
2023/04/20 09:11:44;;;;;;;;;;;;;;;-140.72;100.00;52719.59;5024204;28;20322;-73
2023/04/20 09:14:16;;;;;;;;;;;;;;;-140.72;100.00;52721.63;5030890;28;19975;-72
2023/04/20 09:16:51;;;;;;;;;;;;;;;-140.72;100.00;52697.28;5033258;28;19968;-71
2023/04/20 09:19:23;;;;;;;;;;;;;;;-140.72;100.00;52703.34;5047771;28;19925;-74
2023/04/20 09:21:49;;;;;;;;;;;;;;;-140.72;100.00;52717.56;5046486;28;19917;-71
2023/04/20 09:24:15;;;;;;;;;;;;;;;-140.72;100.00;52699.31;5033832;28;19917;-71
2023/04/20 09:26:40;;;;;;;;;;;;;;;-140.72;100.00;52715.53;5030586;28;19922;-71
2023/04/20 09:29:15;;;;;;;;;;;;;;;-140.72;100.00;52735.81;5028331;28;19928;-71
2023/04/20 09:31:40;;;;;;;;;;;;;;;-140.72;100.00;52735.81;5031050;28;19959;-71
2023/04/20 09:34:06;;;;;;;;;;;;;;;-140.72;100.00;52683.06;5031321;28;19917;-71
2023/04/20 09:36:38;;;;;;;;;;;;;;;-140.72;100.00;52764.25;5030143;28;19928;-71
2023/04/20 09:39:06;;;;;;;;;;;;;;;-140.72;100.00;52683.06;5033189;27;19917;-71
2023/04/20 09:41:33;;;;;;;;;;;;;;;-140.72;100.00;52699.31;5027936;28;19964;-71
2023/04/20 09:43:59;;;;;;;;;;;;;;;-140.72;100.00;52695.25;5024203;28;19921;-71
2023/04/20 09:46:27;;;;;;;;;;;;;;;-140.72;100.00;52715.53;5030801;28;19951;-71
2023/04/20 09:48:52;;;;;;;;;;;;;;;-140.72;100.00;52699.31;5032279;28;20455;-71
2023/04/20 09:51:18;;;;;;;;;;;;;;;-140.72;100.00;52695.25;5029769;28;20042;-72
2023/04/20 09:53:44;;;;;;;;;;;;;;;-140.72;100.00;52713.50;5030106;28;19929;-71
2023/04/20 09:56:11;;;;;;;;;;;;;;;-140.72;100.00;52660.75;5025753;28;19960;-71
2023/04/20 09:58:37;;;;;;;;;;;;;;;-140.72;100.00;52658.72;5036082;28;19924;-69
2023/04/20 10:01:02;;;;;;;;;;;;;;;-140.72;100.00;52626.25;5032213;28;19925;-69
2023/04/20 10:03:28;;;;;;;;;;;;;;;-140.72;100.00;52642.47;5031080;28;19935;-69
2023/04/20 10:05:54;;;;;;;;;;;;;;;-140.72;95.25;52650.59;5030809;28;19921;-69
2023/04/20 10:08:19;;;;;;;;;;;;;;;-140.72;73.21;52650.59;5032067;28;20375;-69
2023/04/20 10:10:46;;;;;;;;;;;;;;;-140.72;67.56;52666.84;5029804;28;19917;-71
2023/04/20 10:13:12;;;;;;;;;;;;;;;-140.72;63.88;52652.63;5031276;28;19925;-69
2023/04/20 10:15:38;;;;;;;;;;;;;;;-140.72;62.46;52676.97;5026177;28;19917;-69
2023/04/20 10:18:23;;;;;;;;;;;;;;;-140.72;55.19;52593.78;5029701;28;19921;-70
2023/04/20 10:20:49;;;;;;;;;;;;;;;-140.72;44.43;52603.94;5029972;28;19966;-72
2023/04/20 10:23:15;;;;;;;;;;;;;;;-140.72;15.93;52646.53;5031368;28;19917;-70
2023/04/20 10:25:40;;;;;;;;;;;;;;;-140.72;15.62;52620.16;5032231;28;19928;-70
2023/04/20 10:28:09;;;;;;;;;;;;;;;-140.72;0.00;52605.94;5029886;28;20004;-69
2023/04/20 10:30:35;;;;;;;;;;;;;;;-140.72;0.00;52553.19;5032370;28;20387;-70
2023/04/20 10:33:03;;;;;;;;;;;;;;;-140.72;0.00;52561.31;5033616;27;20004;-70
2023/04/20 10:35:28;;;;;;;;;;;;;;;-140.72;0.00;52571.47;5030139;28;19960;-70
2023/04/20 10:37:54;;;;;;;;;;;;;;;-140.72;0.00;52577.53;5027000;28;20402;-69
2023/04/20 10:40:28;;;;;;;;;;;;;;;-140.72;0.00;52620.16;5030345;28;19917;-69
2023/04/20 10:42:53;;;;;;;;;;;;;;;-140.72;0.00;52607.97;5027173;28;20414;-69
2023/04/20 10:45:20;;;;;;;;;;;;;;;-140.72;0.00;52557.25;5031698;28;19921;-69
2023/04/20 10:47:45;;;;;;;;;;;;;;;-140.72;0.00;52634.38;5031312;28;20004;-69
2023/04/20 10:50:12;;;;;;;;;;;;;;;-140.72;0.00;52593.78;5030726;28;19960;-71
2023/04/20 10:52:38;;;;;;;;;;;;;;;-140.72;0.00;52545.06;5030595;28;19917;-70
2023/04/20 10:55:05;;;;;;;;;;;;;;;-140.72;0.00;52587.69;5031022;28;20375;-71
2023/04/20 10:57:30;;;;;;;;;;;;;;;-140.72;0.00;52583.63;5032409;28;19922;-71
2023/04/20 10:59:56;;;;;;;;;;;;;;;-140.72;0.00;52593.78;5027642;28;19925;-70
2023/04/20 11:02:21;;;;;;;;;;;;;;;-140.72;0.00;52638.41;5026665;28;20482;-70
2023/04/20 11:04:46;;;;;;;;;;;;;;;-140.72;0.00;52618.13;5030904;28;19917;-70
2023/04/20 11:07:15;;;;;;;;;;;;;;;-140.72;0.00;52607.97;5028134;28;20287;-71
2023/04/20 11:09:42;;;;;;;;;;;;;;;-140.72;0.00;52610.00;5032284;28;20407;-71
2023/04/20 11:12:08;;;;;;;;;;;;;;;-140.72;0.00;52640.44;5030582;28;19940;-71
2023/04/20 11:14:34;;;;;;;;;;;;;;;-140.72;0.00;52593.78;5030231;28;20028;-70
2023/04/20 11:17:00;;;;;;;;;;;;;;;-140.72;0.00;52622.19;5020823;28;19981;-69
2023/04/20 11:19:27;;;;;;;;;;;;;;;-140.72;0.00;52689.16;5030140;28;19968;-70
2023/04/20 11:21:52;;;;;;;;;;;;;;;-140.72;0.00;52634.38;5028244;28;19913;-72
2023/04/20 11:24:21;;;;;;;;;;;;;;;-140.72;0.00;52628.28;5028312;28;19950;-70
2023/04/20 11:26:49;;;;;;;;;;;;;;;-140.72;0.00;52589.72;5027853;28;20206;-72
2023/04/20 11:29:32;;;;;;;;;;;;;;;-140.72;0.00;52597.84;5021678;28;20328;-70
2023/04/20 11:31:58;;;;;;;;;;;;;;;-140.72;0.00;52532.91;5043733;28;20306;-70
2023/04/20 11:34:26;;;;;;;;;;;;;;;-140.72;0.00;52520.72;5031094;28;20005;-71
2023/04/20 11:36:51;;;;;;;;;;;;;;;-140.72;0.00;52545.06;5022449;28;19948;-71
2023/04/20 11:39:26;;;;;;;;;;;;;;;-140.72;0.00;52543.03;5024579;28;19917;-70
2023/04/20 11:41:51;;;;;;;;;;;;;;;-140.72;0.00;52443.63;5024182;28;19917;-70
2023/04/20 11:44:19;;;;;;;;;;;;;;;-140.72;0.00;52427.38;5028645;28;19924;-71
2023/04/20 11:46:45;;;;;;;;;;;;;;;-140.72;0.00;52478.13;5030815;28;19917;-69
2023/04/20 11:49:10;;;;;;;;;;;;;;;-140.72;0.00;52332.03;5024120;28;20328;-70
2023/04/20 11:51:35;;;;;;;;;;;;;;;-140.72;0.00;52392.88;5030291;28;19920;-70
2023/04/20 11:54:01;;;;;;;;;;;;;;;-140.72;0.00;52307.66;5033298;28;20432;-71
2023/04/20 11:56:26;;;;;;;;;;;;;;;-140.72;0.00;52342.16;5030026;28;19913;-70
2023/04/20 11:58:51;;;;;;;;;;;;;;;-140.72;0.00;52368.53;5030634;28;20414;-70
2023/04/20 12:01:17;;;;;;;;;;;;;;;-140.72;0.00;52443.63;5029136;28;19924;-70
2023/04/20 12:03:42;;;;;;;;;;;;;;;-140.72;0.00;52291.44;5029098;28;19917;-70
2023/04/20 12:06:07;;;;;;;;;;;;;;;-140.72;0.00;52407.09;5029183;28;19928;-70
2023/04/20 12:08:33;;;;;;;;;;;;;;;-140.72;0.00;52439.56;5030381;28;19924;-70
2023/04/20 12:10:58;;;;;;;;;;;;;;;-140.72;0.00;52484.19;5028863;28;19964;-70
2023/04/20 12:13:23;;;;;;;;;;;;;;;-140.72;0.00;52480.16;5030332;28;19974;-70
2023/04/20 12:15:48;;;;;;;;;;;;;;;-140.72;0.00;52502.47;5027702;28;19921;-69
2023/04/20 12:18:14;;;;;;;;;;;;;;;-140.72;0.00;52508.56;5018019;28;20387;-70
2023/04/20 12:20:39;;;;;;;;;;;;;;;-140.72;0.00;52474.06;5028935;28;19917;-70
2023/04/20 12:23:04;;;;;;;;;;;;;;;-140.72;0.00;52512.59;5030082;28;19917;-71
2023/04/20 12:25:33;;;;;;;;;;;;;;;-140.72;0.00;52504.50;5017188;28;19924;-70
2023/04/20 12:27:58;;;;;;;;;;;;;;;-140.72;0.00;52451.72;5029101;28;19960;-71
2023/04/20 12:30:23;;;;;;;;;;;;;;;-140.72;0.00;52319.84;5028702;28;20391;-72
2023/04/20 12:32:49;;;;;;;;;;;;;;;-140.72;0.00;52321.88;5028881;28;19970;-71
2023/04/20 12:35:14;;;;;;;;;;;;;;;-140.72;0.00;52390.84;5029644;28;20008;-70
2023/04/20 12:37:40;;;;;;;;;;;;;;;-140.72;0.00;52330.00;5028641;28;20395;-70